sensor_id;sensor_type;location;lat;lon;timestamp;temperature;humidity
67354;SHT30;54238;52.278;21.056;2024-03-22T00:02:29;10.86;72.55
67354;SHT30;54238;52.278;21.056;2024-03-22T00:05:18;10.87;72.58
67354;SHT30;54238;52.278;21.056;2024-03-22T00:08:10;10.89;72.66
67354;SHT30;54238;52.278;21.056;2024-03-22T00:10:56;10.88;72.66
67354;SHT30;54238;52.278;21.056;2024-03-22T00:13:45;10.89;72.87
67354;SHT30;54238;52.278;21.056;2024-03-22T00:16:32;10.88;73.16
67354;SHT30;54238;52.278;21.056;2024-03-22T00:19:19;10.88;73.38
67354;SHT30;54238;52.278;21.056;2024-03-22T00:22:05;10.85;73.57
67354;SHT30;54238;52.278;21.056;2024-03-22T00:24:52;10.86;73.54
67354;SHT30;54238;52.278;21.056;2024-03-22T00:27:41;10.88;73.64
67354;SHT30;54238;52.278;21.056;2024-03-22T00:30:33;10.88;73.89
67354;SHT30;54238;52.278;21.056;2024-03-22T00:33:20;10.86;74.02
67354;SHT30;54238;52.278;21.056;2024-03-22T00:36:07;10.84;74.20
67354;SHT30;54238;52.278;21.056;2024-03-22T00:38:55;10.81;74.57
67354;SHT30;54238;52.278;21.056;2024-03-22T00:41:46;10.80;74.69
67354;SHT30;54238;52.278;21.056;2024-03-22T00:44:33;10.77;74.82
67354;SHT30;54238;52.278;21.056;2024-03-22T00:47:19;10.76;75.09
67354;SHT30;54238;52.278;21.056;2024-03-22T00:50:06;10.74;75.13
67354;SHT30;54238;52.278;21.056;2024-03-22T00:52:56;10.73;75.34
67354;SHT30;54238;52.278;21.056;2024-03-22T00:55:47;10.74;75.56
67354;SHT30;54238;52.278;21.056;2024-03-22T00:58:37;10.73;75.71
67354;SHT30;54238;52.278;21.056;2024-03-22T01:01:28;10.72;75.93
67354;SHT30;54238;52.278;21.056;2024-03-22T01:04:15;10.69;76.29
67354;SHT30;54238;52.278;21.056;2024-03-22T01:07:04;10.68;76.50
67354;SHT30;54238;52.278;21.056;2024-03-22T01:09:53;10.67;76.56
67354;SHT30;54238;52.278;21.056;2024-03-22T01:12:40;10.66;76.64
67354;SHT30;54238;52.278;21.056;2024-03-22T01:15:26;10.67;76.78
67354;SHT30;54238;52.278;21.056;2024-03-22T01:18:15;10.67;76.84
67354;SHT30;54238;52.278;21.056;2024-03-22T01:21:02;10.67;77.04
67354;SHT30;54238;52.278;21.056;2024-03-22T01:23:53;10.66;77.08
67354;SHT30;54238;52.278;21.056;2024-03-22T01:26:42;10.65;77.23
67354;SHT30;54238;52.278;21.056;2024-03-22T01:29:29;10.64;77.35
67354;SHT30;54238;52.278;21.056;2024-03-22T01:32:20;10.62;77.42
67354;SHT30;54238;52.278;21.056;2024-03-22T01:35:08;10.62;77.46
67354;SHT30;54238;52.278;21.056;2024-03-22T01:37:55;10.62;77.63
67354;SHT30;54238;52.278;21.056;2024-03-22T01:40:42;10.60;77.73
67354;SHT30;54238;52.278;21.056;2024-03-22T01:43:31;10.60;77.78
67354;SHT30;54238;52.278;21.056;2024-03-22T01:46:17;10.61;77.78
67354;SHT30;54238;52.278;21.056;2024-03-22T01:49:11;10.63;77.80
67354;SHT30;54238;52.278;21.056;2024-03-22T01:52:02;10.66;77.79
67354;SHT30;54238;52.278;21.056;2024-03-22T01:54:49;10.68;77.79
67354;SHT30;54238;52.278;21.056;2024-03-22T01:57:36;10.69;77.77
67354;SHT30;54238;52.278;21.056;2024-03-22T02:00:24;10.69;77.82
67354;SHT30;54238;52.278;21.056;2024-03-22T02:03:16;10.68;77.86
67354;SHT30;54238;52.278;21.056;2024-03-22T02:06:05;10.68;77.95
67354;SHT30;54238;52.278;21.056;2024-03-22T02:08:52;10.69;78.07
67354;SHT30;54238;52.278;21.056;2024-03-22T02:11:39;10.70;78.24
67354;SHT30;54238;52.278;21.056;2024-03-22T02:14:26;10.66;78.46
67354;SHT30;54238;52.278;21.056;2024-03-22T02:17:13;10.65;78.65
67354;SHT30;54238;52.278;21.056;2024-03-22T02:20:04;10.65;78.59
67354;SHT30;54238;52.278;21.056;2024-03-22T02:22:55;10.68;78.68
67354;SHT30;54238;52.278;21.056;2024-03-22T02:25:41;10.65;78.65
67354;SHT30;54238;52.278;21.056;2024-03-22T02:28:31;10.66;78.77
67354;SHT30;54238;52.278;21.056;2024-03-22T02:31:23;10.70;78.77
67354;SHT30;54238;52.278;21.056;2024-03-22T02:34:14;10.69;78.76
67354;SHT30;54238;52.278;21.056;2024-03-22T02:37:03;10.72;78.84
67354;SHT30;54238;52.278;21.056;2024-03-22T02:39:55;10.73;78.79
67354;SHT30;54238;52.278;21.056;2024-03-22T02:42:42;10.74;78.73
67354;SHT30;54238;52.278;21.056;2024-03-22T02:45:31;10.77;78.70
67354;SHT30;54238;52.278;21.056;2024-03-22T02:48:18;10.84;78.74
67354;SHT30;54238;52.278;21.056;2024-03-22T02:51:07;10.87;78.38
67354;SHT30;54238;52.278;21.056;2024-03-22T02:53:59;10.89;78.27
67354;SHT30;54238;52.278;21.056;2024-03-22T02:56:50;10.91;78.20
67354;SHT30;54238;52.278;21.056;2024-03-22T02:59:39;10.91;78.05
67354;SHT30;54238;52.278;21.056;2024-03-22T03:02:28;10.93;77.91
67354;SHT30;54238;52.278;21.056;2024-03-22T03:05:15;10.93;77.89
67354;SHT30;54238;52.278;21.056;2024-03-22T03:08:07;10.95;77.78
67354;SHT30;54238;52.278;21.056;2024-03-22T03:10:54;10.95;77.80
67354;SHT30;54238;52.278;21.056;2024-03-22T03:13:40;10.98;77.63
67354;SHT30;54238;52.278;21.056;2024-03-22T03:16:28;10.96;77.38
67354;SHT30;54238;52.278;21.056;2024-03-22T03:19:17;10.94;77.28
67354;SHT30;54238;52.278;21.056;2024-03-22T03:22:04;10.92;77.25
67354;SHT30;54238;52.278;21.056;2024-03-22T03:24:51;10.92;77.05
67354;SHT30;54238;52.278;21.056;2024-03-22T03:27:42;10.85;76.72
67354;SHT30;54238;52.278;21.056;2024-03-22T03:30:32;10.82;76.81
67354;SHT30;54238;52.278;21.056;2024-03-22T03:33:18;10.80;76.66
67354;SHT30;54238;52.278;21.056;2024-03-22T03:36:07;10.75;76.50
67354;SHT30;54238;52.278;21.056;2024-03-22T03:38:56;10.73;76.50
67354;SHT30;54238;52.278;21.056;2024-03-22T03:41:43;10.68;76.39
67354;SHT30;54238;52.278;21.056;2024-03-22T03:44:30;10.61;76.28
67354;SHT30;54238;52.278;21.056;2024-03-22T03:47:17;10.56;76.30
67354;SHT30;54238;52.278;21.056;2024-03-22T03:50:03;10.48;76.18
67354;SHT30;54238;52.278;21.056;2024-03-22T03:52:56;10.41;76.28
67354;SHT30;54238;52.278;21.056;2024-03-22T03:55:43;10.35;76.31
67354;SHT30;54238;52.278;21.056;2024-03-22T03:58:30;10.31;76.38
67354;SHT30;54238;52.278;21.056;2024-03-22T04:01:19;10.29;76.38
67354;SHT30;54238;52.278;21.056;2024-03-22T04:04:06;10.26;76.37
67354;SHT30;54238;52.278;21.056;2024-03-22T04:06:53;10.20;76.23
67354;SHT30;54238;52.278;21.056;2024-03-22T04:09:42;10.14;76.19
67354;SHT30;54238;52.278;21.056;2024-03-22T04:12:31;10.10;76.33
67354;SHT30;54238;52.278;21.056;2024-03-22T04:15:20;10.09;76.34
67354;SHT30;54238;52.278;21.056;2024-03-22T04:18:06;10.08;76.20
67354;SHT30;54238;52.278;21.056;2024-03-22T04:20:54;10.02;76.15
67354;SHT30;54238;52.278;21.056;2024-03-22T04:23:45;9.96;76.19
67354;SHT30;54238;52.278;21.056;2024-03-22T04:26:36;9.96;76.33
67354;SHT30;54238;52.278;21.056;2024-03-22T04:29:23;9.98;76.37
67354;SHT30;54238;52.278;21.056;2024-03-22T04:32:12;10.03;76.22
67354;SHT30;54238;52.278;21.056;2024-03-22T04:34:59;10.02;76.02
67354;SHT30;54238;52.278;21.056;2024-03-22T04:37:45;10.02;75.95
67354;SHT30;54238;52.278;21.056;2024-03-22T04:40:32;10.02;75.94
67354;SHT30;54238;52.278;21.056;2024-03-22T04:43:19;10.00;75.87
67354;SHT30;54238;52.278;21.056;2024-03-22T04:46:06;10.00;75.86
67354;SHT30;54238;52.278;21.056;2024-03-22T04:48:55;9.95;75.79
67354;SHT30;54238;52.278;21.056;2024-03-22T04:51:42;9.90;75.91
67354;SHT30;54238;52.278;21.056;2024-03-22T04:54:29;9.88;76.00
67354;SHT30;54238;52.278;21.056;2024-03-22T04:57:16;9.88;76.08
67354;SHT30;54238;52.278;21.056;2024-03-22T05:00:02;9.88;76.07
67354;SHT30;54238;52.278;21.056;2024-03-22T05:02:54;9.89;76.05
67354;SHT30;54238;52.278;21.056;2024-03-22T05:05:43;9.87;75.98
67354;SHT30;54238;52.278;21.056;2024-03-22T05:08:30;9.86;76.03
67354;SHT30;54238;52.278;21.056;2024-03-22T05:11:19;9.83;76.11
67354;SHT30;54238;52.278;21.056;2024-03-22T05:14:06;9.78;76.09
67354;SHT30;54238;52.278;21.056;2024-03-22T05:16:52;9.74;75.94
67354;SHT30;54238;52.278;21.056;2024-03-22T05:19:43;9.70;76.11
67354;SHT30;54238;52.278;21.056;2024-03-22T05:22:33;9.73;76.24
67354;SHT30;54238;52.278;21.056;2024-03-22T05:25:19;9.73;76.20
67354;SHT30;54238;52.278;21.056;2024-03-22T05:28:12;9.72;76.33
67354;SHT30;54238;52.278;21.056;2024-03-22T05:31:01;9.75;76.31
67354;SHT30;54238;52.278;21.056;2024-03-22T05:33:47;9.77;76.40
67354;SHT30;54238;52.278;21.056;2024-03-22T05:36:34;9.79;76.18
67354;SHT30;54238;52.278;21.056;2024-03-22T05:39:23;9.81;76.29
67354;SHT30;54238;52.278;21.056;2024-03-22T05:42:10;9.85;76.14
67354;SHT30;54238;52.278;21.056;2024-03-22T05:44:57;9.85;75.82
67354;SHT30;54238;52.278;21.056;2024-03-22T05:47:46;9.85;75.62
67354;SHT30;54238;52.278;21.056;2024-03-22T05:50:35;9.87;75.72
67354;SHT30;54238;52.278;21.056;2024-03-22T05:53:24;9.91;75.59
67354;SHT30;54238;52.278;21.056;2024-03-22T05:56:11;9.91;75.36
67354;SHT30;54238;52.278;21.056;2024-03-22T05:59:02;9.96;75.45
67354;SHT30;54238;52.278;21.056;2024-03-22T06:01:51;9.99;75.25
67354;SHT30;54238;52.278;21.056;2024-03-22T06:04:40;9.96;75.33
67354;SHT30;54238;52.278;21.056;2024-03-22T06:07:32;9.97;75.40
67354;SHT30;54238;52.278;21.056;2024-03-22T06:10:26;10.00;75.34
67354;SHT30;54238;52.278;21.056;2024-03-22T06:13:15;10.00;75.17
67354;SHT30;54238;52.278;21.056;2024-03-22T06:16:02;9.99;75.24
67354;SHT30;54238;52.278;21.056;2024-03-22T06:18:52;10.01;75.38
67354;SHT30;54238;52.278;21.056;2024-03-22T06:21:39;10.06;74.93
67354;SHT30;54238;52.278;21.056;2024-03-22T06:24:26;10.09;74.62
67354;SHT30;54238;52.278;21.056;2024-03-22T06:27:13;10.10;74.35
67354;SHT30;54238;52.278;21.056;2024-03-22T06:30:05;10.06;74.25
67354;SHT30;54238;52.278;21.056;2024-03-22T06:32:53;10.05;74.41
67354;SHT30;54238;52.278;21.056;2024-03-22T06:35:42;10.16;75.51
67354;SHT30;54238;52.278;21.056;2024-03-22T06:38:33;10.20;74.61
67354;SHT30;54238;52.278;21.056;2024-03-22T06:41:22;10.21;74.69
67354;SHT30;54238;52.278;21.056;2024-03-22T06:44:12;10.28;74.54
67354;SHT30;54238;52.278;21.056;2024-03-22T06:47:00;10.34;74.58
67354;SHT30;54238;52.278;21.056;2024-03-22T06:49:46;10.39;74.20
67354;SHT30;54238;52.278;21.056;2024-03-22T06:52:35;10.45;74.15
67354;SHT30;54238;52.278;21.056;2024-03-22T06:55:22;10.50;73.45
67354;SHT30;54238;52.278;21.056;2024-03-22T06:58:11;10.58;73.42
67354;SHT30;54238;52.278;21.056;2024-03-22T07:00:58;10.56;72.90
67354;SHT30;54238;52.278;21.056;2024-03-22T07:03:47;10.62;72.61
67354;SHT30;54238;52.278;21.056;2024-03-22T07:06:34;10.68;72.62
67354;SHT30;54238;52.278;21.056;2024-03-22T07:09:26;10.79;72.42
67354;SHT30;54238;52.278;21.056;2024-03-22T07:12:17;10.90;71.74
67354;SHT30;54238;52.278;21.056;2024-03-22T07:15:04;11.00;71.54
67354;SHT30;54238;52.278;21.056;2024-03-22T07:17:54;11.06;71.16
67354;SHT30;54238;52.278;21.056;2024-03-22T07:20:46;11.04;70.94
67354;SHT30;54238;52.278;21.056;2024-03-22T07:23:35;11.07;70.98
67354;SHT30;54238;52.278;21.056;2024-03-22T07:26:25;11.10;70.66
67354;SHT30;54238;52.278;21.056;2024-03-22T07:29:11;11.09;70.55
67354;SHT30;54238;52.278;21.056;2024-03-22T07:31:58;11.07;70.31
67354;SHT30;54238;52.278;21.056;2024-03-22T07:34:46;11.06;70.20
67354;SHT30;54238;52.278;21.056;2024-03-22T07:37:40;11.03;69.95
67354;SHT30;54238;52.278;21.056;2024-03-22T07:40:29;10.96;69.67
67354;SHT30;54238;52.278;21.056;2024-03-22T07:43:16;10.87;69.81
67354;SHT30;54238;52.278;21.056;2024-03-22T07:46:07;10.80;69.98
67354;SHT30;54238;52.278;21.056;2024-03-22T07:48:58;10.77;70.12
67354;SHT30;54238;52.278;21.056;2024-03-22T07:51:45;10.71;70.41
67354;SHT30;54238;52.278;21.056;2024-03-22T07:54:34;10.68;70.30
67354;SHT30;54238;52.278;21.056;2024-03-22T07:57:21;10.63;70.12
67354;SHT30;54238;52.278;21.056;2024-03-22T08:00:09;10.60;70.22
67354;SHT30;54238;52.278;21.056;2024-03-22T08:03:01;10.58;70.60
67354;SHT30;54238;52.278;21.056;2024-03-22T08:05:51;10.66;70.74
67354;SHT30;54238;52.278;21.056;2024-03-22T08:08:40;10.68;70.32
67354;SHT30;54238;52.278;21.056;2024-03-22T08:11:32;10.68;70.33
67354;SHT30;54238;52.278;21.056;2024-03-22T08:14:21;10.71;70.53
67354;SHT30;54238;52.278;21.056;2024-03-22T08:17:07;10.70;70.55
67354;SHT30;54238;52.278;21.056;2024-03-22T08:19:57;10.64;70.45
67354;SHT30;54238;52.278;21.056;2024-03-22T08:22:46;10.52;70.46
67354;SHT30;54238;52.278;21.056;2024-03-22T08:25:35;10.38;70.58
67354;SHT30;54238;52.278;21.056;2024-03-22T08:28:24;10.29;70.94
67354;SHT30;54238;52.278;21.056;2024-03-22T08:31:11;10.28;71.30
67354;SHT30;54238;52.278;21.056;2024-03-22T08:34:01;10.27;71.45
67354;SHT30;54238;52.278;21.056;2024-03-22T08:36:51;10.32;71.58
67354;SHT30;54238;52.278;21.056;2024-03-22T08:39:41;10.37;71.41
67354;SHT30;54238;52.278;21.056;2024-03-22T08:42:30;10.39;71.17
67354;SHT30;54238;52.278;21.056;2024-03-22T08:45:19;10.40;70.91
67354;SHT30;54238;52.278;21.056;2024-03-22T08:48:08;10.37;70.83
67354;SHT30;54238;52.278;21.056;2024-03-22T08:50:57;10.34;70.81
67354;SHT30;54238;52.278;21.056;2024-03-22T08:53:46;10.28;70.71
67354;SHT30;54238;52.278;21.056;2024-03-22T08:56:38;10.27;70.85
67354;SHT30;54238;52.278;21.056;2024-03-22T08:59:24;10.29;70.86
67354;SHT30;54238;52.278;21.056;2024-03-22T09:02:11;10.35;71.23
67354;SHT30;54238;52.278;21.056;2024-03-22T09:05:00;10.44;71.09
67354;SHT30;54238;52.278;21.056;2024-03-22T09:07:50;10.43;70.91
67354;SHT30;54238;52.278;21.056;2024-03-22T09:10:44;10.42;71.10
67354;SHT30;54238;52.278;21.056;2024-03-22T09:13:31;10.44;71.12
67354;SHT30;54238;52.278;21.056;2024-03-22T09:16:23;10.49;71.04
67354;SHT30;54238;52.278;21.056;2024-03-22T09:19:13;10.55;70.98
67354;SHT30;54238;52.278;21.056;2024-03-22T09:22:02;10.57;70.96
67354;SHT30;54238;52.278;21.056;2024-03-22T09:24:51;10.56;70.65
67354;SHT30;54238;52.278;21.056;2024-03-22T09:27:38;10.58;70.84
67354;SHT30;54238;52.278;21.056;2024-03-22T09:30:25;10.66;70.74
67354;SHT30;54238;52.278;21.056;2024-03-22T09:33:14;10.68;70.33
67354;SHT30;54238;52.278;21.056;2024-03-22T09:36:07;10.68;70.36
67354;SHT30;54238;52.278;21.056;2024-03-22T09:38:54;10.74;70.32
67354;SHT30;54238;52.278;21.056;2024-03-22T09:41:43;10.75;69.87
67354;SHT30;54238;52.278;21.056;2024-03-22T09:44:30;10.73;69.85
67354;SHT30;54238;52.278;21.056;2024-03-22T09:47:21;10.73;69.91
67354;SHT30;54238;52.278;21.056;2024-03-22T09:50:07;10.76;69.92
67354;SHT30;54238;52.278;21.056;2024-03-22T09:52:56;10.79;69.81
67354;SHT30;54238;52.278;21.056;2024-03-22T09:55:43;10.77;69.66
67354;SHT30;54238;52.278;21.056;2024-03-22T09:58:33;10.78;69.90
67354;SHT30;54238;52.278;21.056;2024-03-22T10:01:24;10.89;69.87
67354;SHT30;54238;52.278;21.056;2024-03-22T10:04:13;11.03;69.50
67354;SHT30;54238;52.278;21.056;2024-03-22T10:07:03;11.05;69.05
67354;SHT30;54238;52.278;21.056;2024-03-22T10:09:51;11.03;69.22
67354;SHT30;54238;52.278;21.056;2024-03-22T10:12:38;11.09;69.25
67354;SHT30;54238;52.278;21.056;2024-03-22T10:15:25;11.11;69.26
67354;SHT30;54238;52.278;21.056;2024-03-22T10:18:18;11.16;69.42
67354;SHT30;54238;52.278;21.056;2024-03-22T10:21:05;11.18;69.35
67354;SHT30;54238;52.278;21.056;2024-03-22T10:23:53;11.13;69.37
67354;SHT30;54238;52.278;21.056;2024-03-22T10:26:39;11.07;69.63
67354;SHT30;54238;52.278;21.056;2024-03-22T10:29:30;11.07;69.93
67354;SHT30;54238;52.278;21.056;2024-03-22T10:32:19;11.08;70.14
67354;SHT30;54238;52.278;21.056;2024-03-22T10:35:13;11.10;70.15
67354;SHT30;54238;52.278;21.056;2024-03-22T10:38:03;11.08;70.26
67354;SHT30;54238;52.278;21.056;2024-03-22T10:40:53;11.09;70.39
67354;SHT30;54238;52.278;21.056;2024-03-22T10:43:40;11.06;70.45
67354;SHT30;54238;52.278;21.056;2024-03-22T10:46:29;11.03;70.71
67354;SHT30;54238;52.278;21.056;2024-03-22T10:49:20;11.01;70.79
67354;SHT30;54238;52.278;21.056;2024-03-22T10:52:07;10.95;70.93
67354;SHT30;54238;52.278;21.056;2024-03-22T10:54:57;10.93;71.21
67354;SHT30;54238;52.278;21.056;2024-03-22T10:57:44;10.94;71.30
67354;SHT30;54238;52.278;21.056;2024-03-22T11:00:36;10.88;71.59
67354;SHT30;54238;52.278;21.056;2024-03-22T11:03:26;10.81;71.85
67354;SHT30;54238;52.278;21.056;2024-03-22T11:06:17;10.77;72.22
67354;SHT30;54238;52.278;21.056;2024-03-22T11:09:06;10.73;72.59
67354;SHT30;54238;52.278;21.056;2024-03-22T11:11:55;10.69;73.06
67354;SHT30;54238;52.278;21.056;2024-03-22T11:14:48;10.68;73.33
67354;SHT30;54238;52.278;21.056;2024-03-22T11:17:36;10.71;73.48
67354;SHT30;54238;52.278;21.056;2024-03-22T11:20:26;10.73;73.51
67354;SHT30;54238;52.278;21.056;2024-03-22T11:23:19;10.73;73.63
67354;SHT30;54238;52.278;21.056;2024-03-22T11:26:08;10.72;73.69
67354;SHT30;54238;52.278;21.056;2024-03-22T11:28:56;10.73;73.57
67354;SHT30;54238;52.278;21.056;2024-03-22T11:31:46;10.76;73.44
67354;SHT30;54238;52.278;21.056;2024-03-22T11:34:34;10.91;73.27
67354;SHT30;54238;52.278;21.056;2024-03-22T11:37:30;11.09;72.91
67354;SHT30;54238;52.278;21.056;2024-03-22T11:40:19;11.24;72.24
67354;SHT30;54238;52.278;21.056;2024-03-22T11:43:06;11.26;71.54
67354;SHT30;54238;52.278;21.056;2024-03-22T11:45:56;11.28;71.43
67354;SHT30;54238;52.278;21.056;2024-03-22T11:48:45;11.29;71.23
67354;SHT30;54238;52.278;21.056;2024-03-22T11:51:42;11.34;71.16
67354;SHT30;54238;52.278;21.056;2024-03-22T11:54:32;11.35;70.90
67354;SHT30;54238;52.278;21.056;2024-03-22T11:57:21;11.36;70.85
67354;SHT30;54238;52.278;21.056;2024-03-22T12:00:13;11.33;70.55
67354;SHT30;54238;52.278;21.056;2024-03-22T12:03:00;11.31;70.19
67354;SHT30;54238;52.278;21.056;2024-03-22T12:05:46;11.29;70.01
67354;SHT30;54238;52.278;21.056;2024-03-22T12:08:35;11.32;69.94
67354;SHT30;54238;52.278;21.056;2024-03-22T12:11:24;11.38;69.55
67354;SHT30;54238;52.278;21.056;2024-03-22T12:14:13;11.42;69.10
67354;SHT30;54238;52.278;21.056;2024-03-22T12:17:00;11.47;68.54
67354;SHT30;54238;52.278;21.056;2024-03-22T12:19:52;11.54;68.41
67354;SHT30;54238;52.278;21.056;2024-03-22T12:22:43;11.60;68.15
67354;SHT30;54238;52.278;21.056;2024-03-22T12:25:32;11.66;67.35
67354;SHT30;54238;52.278;21.056;2024-03-22T12:28:21;11.66;67.05
67354;SHT30;54238;52.278;21.056;2024-03-22T12:31:08;11.62;66.76
67354;SHT30;54238;52.278;21.056;2024-03-22T12:33:57;11.56;66.72
67354;SHT30;54238;52.278;21.056;2024-03-22T12:36:44;11.51;66.58
67354;SHT30;54238;52.278;21.056;2024-03-22T12:39:33;11.47;66.67
67354;SHT30;54238;52.278;21.056;2024-03-22T12:42:23;11.44;66.94
67354;SHT30;54238;52.278;21.056;2024-03-22T12:45:13;11.48;67.19
67354;SHT30;54238;52.278;21.056;2024-03-22T12:48:07;11.54;67.26
67354;SHT30;54238;52.278;21.056;2024-03-22T12:51:04;11.54;66.85
67354;SHT30;54238;52.278;21.056;2024-03-22T12:53:50;11.54;66.81
67354;SHT30;54238;52.278;21.056;2024-03-22T12:56:41;11.58;66.90
67354;SHT30;54238;52.278;21.056;2024-03-22T12:59:34;11.63;66.88
67354;SHT30;54238;52.278;21.056;2024-03-22T13:02:23;11.68;66.84
67354;SHT30;54238;52.278;21.056;2024-03-22T13:05:17;11.74;66.70
67354;SHT30;54238;52.278;21.056;2024-03-22T13:08:04;11.77;66.61
67354;SHT30;54238;52.278;21.056;2024-03-22T13:10:51;11.74;65.93
67354;SHT30;54238;52.278;21.056;2024-03-22T13:13:38;11.73;66.17
67354;SHT30;54238;52.278;21.056;2024-03-22T13:16:25;11.74;66.26
67354;SHT30;54238;52.278;21.056;2024-03-22T13:19:17;11.74;66.01
67354;SHT30;54238;52.278;21.056;2024-03-22T13:22:04;11.75;65.84
67354;SHT30;54238;52.278;21.056;2024-03-22T13:24:56;11.77;65.97
67354;SHT30;54238;52.278;21.056;2024-03-22T13:27:43;11.78;66.09
67354;SHT30;54238;52.278;21.056;2024-03-22T13:30:29;11.81;66.18
67354;SHT30;54238;52.278;21.056;2024-03-22T13:33:18;11.88;65.93
67354;SHT30;54238;52.278;21.056;2024-03-22T13:36:08;11.90;65.32
67354;SHT30;54238;52.278;21.056;2024-03-22T13:38:54;11.88;65.16
67354;SHT30;54238;52.278;21.056;2024-03-22T13:41:41;11.88;65.19
67354;SHT30;54238;52.278;21.056;2024-03-22T13:44:28;11.93;65.33
67354;SHT30;54238;52.278;21.056;2024-03-22T13:47:15;11.97;65.22
67354;SHT30;54238;52.278;21.056;2024-03-22T13:50:04;12.02;65.33
67354;SHT30;54238;52.278;21.056;2024-03-22T13:52:57;12.11;65.33
67354;SHT30;54238;52.278;21.056;2024-03-22T13:55:47;12.14;65.27
67354;SHT30;54238;52.278;21.056;2024-03-22T13:58:42;12.15;65.11
67354;SHT30;54238;52.278;21.056;2024-03-22T14:01:29;12.12;65.03
67354;SHT30;54238;52.278;21.056;2024-03-22T14:04:16;12.11;65.18
67354;SHT30;54238;52.278;21.056;2024-03-22T14:07:02;12.12;65.16
67354;SHT30;54238;52.278;21.056;2024-03-22T14:09:52;12.09;65.22
67354;SHT30;54238;52.278;21.056;2024-03-22T14:12:42;12.09;65.35
67354;SHT30;54238;52.278;21.056;2024-03-22T14:15:31;12.12;65.31
67354;SHT30;54238;52.278;21.056;2024-03-22T14:18:22;12.12;65.37
67354;SHT30;54238;52.278;21.056;2024-03-22T14:21:11;12.10;65.24
67354;SHT30;54238;52.278;21.056;2024-03-22T14:24:05;12.11;65.33
67354;SHT30;54238;52.278;21.056;2024-03-22T14:26:52;12.15;65.36
67354;SHT30;54238;52.278;21.056;2024-03-22T14:29:41;12.17;65.36
67354;SHT30;54238;52.278;21.056;2024-03-22T14:32:28;12.22;65.35
67354;SHT30;54238;52.278;21.056;2024-03-22T14:35:17;12.25;65.18
67354;SHT30;54238;52.278;21.056;2024-03-22T14:38:04;12.26;65.18
67354;SHT30;54238;52.278;21.056;2024-03-22T14:40:54;12.24;65.05
67354;SHT30;54238;52.278;21.056;2024-03-22T14:43:41;12.20;65.21
67354;SHT30;54238;52.278;21.056;2024-03-22T14:46:28;12.21;65.45
67354;SHT30;54238;52.278;21.056;2024-03-22T14:49:15;12.24;65.28
67354;SHT30;54238;52.278;21.056;2024-03-22T14:52:07;12.22;65.32
67354;SHT30;54238;52.278;21.056;2024-03-22T14:54:57;12.25;65.47
67354;SHT30;54238;52.278;21.056;2024-03-22T14:57:43;12.26;65.41
67354;SHT30;54238;52.278;21.056;2024-03-22T15:00:35;12.24;65.27
67354;SHT30;54238;52.278;21.056;2024-03-22T15:03:22;12.23;65.14
67354;SHT30;54238;52.278;21.056;2024-03-22T15:06:09;12.23;65.26
67354;SHT30;54238;52.278;21.056;2024-03-22T15:08:58;12.26;65.27
67354;SHT30;54238;52.278;21.056;2024-03-22T15:11:55;12.26;65.10
67354;SHT30;54238;52.278;21.056;2024-03-22T15:14:45;12.26;65.24
67354;SHT30;54238;52.278;21.056;2024-03-22T15:17:34;12.27;65.19
67354;SHT30;54238;52.278;21.056;2024-03-22T15:20:23;12.24;65.47
67354;SHT30;54238;52.278;21.056;2024-03-22T15:23:10;12.21;65.83
67354;SHT30;54238;52.278;21.056;2024-03-22T15:26:00;12.18;66.26
67354;SHT30;54238;52.278;21.056;2024-03-22T15:28:51;12.15;66.41
67354;SHT30;54238;52.278;21.056;2024-03-22T15:31:40;12.15;66.82
67354;SHT30;54238;52.278;21.056;2024-03-22T15:34:30;12.14;67.11
67354;SHT30;54238;52.278;21.056;2024-03-22T15:37:20;12.12;67.18
67354;SHT30;54238;52.278;21.056;2024-03-22T15:40:10;12.09;67.52
67354;SHT30;54238;52.278;21.056;2024-03-22T15:42:57;12.07;67.72
67354;SHT30;54238;52.278;21.056;2024-03-22T15:45:47;12.06;67.60
67354;SHT30;54238;52.278;21.056;2024-03-22T15:48:34;12.05;67.53
67354;SHT30;54238;52.278;21.056;2024-03-22T15:51:21;12.06;67.53
67354;SHT30;54238;52.278;21.056;2024-03-22T15:54:12;12.06;67.51
67354;SHT30;54238;52.278;21.056;2024-03-22T15:56:59;12.07;67.24
67354;SHT30;54238;52.278;21.056;2024-03-22T15:59:46;12.06;66.84
67354;SHT30;54238;52.278;21.056;2024-03-22T16:02:33;12.04;66.52
67354;SHT30;54238;52.278;21.056;2024-03-22T16:05:20;12.01;66.45
67354;SHT30;54238;52.278;21.056;2024-03-22T16:08:09;11.98;66.62
67354;SHT30;54238;52.278;21.056;2024-03-22T16:10:58;11.98;66.22
67354;SHT30;54238;52.278;21.056;2024-03-22T16:13:45;11.97;66.10
67354;SHT30;54238;52.278;21.056;2024-03-22T16:16:37;11.96;66.31
67354;SHT30;54238;52.278;21.056;2024-03-22T16:19:23;11.93;66.11
67354;SHT30;54238;52.278;21.056;2024-03-22T16:22:14;11.94;65.99
67354;SHT30;54238;52.278;21.056;2024-03-22T16:25:01;11.91;65.86
67354;SHT30;54238;52.278;21.056;2024-03-22T16:27:50;11.90;65.99
67354;SHT30;54238;52.278;21.056;2024-03-22T16:30:37;11.88;66.12
67354;SHT30;54238;52.278;21.056;2024-03-22T16:33:26;11.87;65.98
67354;SHT30;54238;52.278;21.056;2024-03-22T16:36:16;11.88;66.03
67354;SHT30;54238;52.278;21.056;2024-03-22T16:39:05;11.86;66.10
67354;SHT30;54238;52.278;21.056;2024-03-22T16:41:59;11.86;66.09
67354;SHT30;54238;52.278;21.056;2024-03-22T16:44:51;11.86;66.12
67354;SHT30;54238;52.278;21.056;2024-03-22T16:47:43;11.87;66.20
67354;SHT30;54238;52.278;21.056;2024-03-22T16:50:33;11.88;66.17
67354;SHT30;54238;52.278;21.056;2024-03-22T16:53:23;11.89;66.25
67354;SHT30;54238;52.278;21.056;2024-03-22T16:56:17;11.87;66.30
67354;SHT30;54238;52.278;21.056;2024-03-22T16:59:06;11.86;66.39
67354;SHT30;54238;52.278;21.056;2024-03-22T17:01:56;11.84;66.39
67354;SHT30;54238;52.278;21.056;2024-03-22T17:04:43;11.81;66.38
67354;SHT30;54238;52.278;21.056;2024-03-22T17:07:32;11.79;66.41
67354;SHT30;54238;52.278;21.056;2024-03-22T17:10:21;11.79;66.49
67354;SHT30;54238;52.278;21.056;2024-03-22T17:13:08;11.80;66.53
67354;SHT30;54238;52.278;21.056;2024-03-22T17:15:58;11.80;66.68
67354;SHT30;54238;52.278;21.056;2024-03-22T17:18:48;11.79;66.66
67354;SHT30;54238;52.278;21.056;2024-03-22T17:21:36;11.81;66.67
67354;SHT30;54238;52.278;21.056;2024-03-22T17:24:22;11.83;66.74
67354;SHT30;54238;52.278;21.056;2024-03-22T17:27:12;11.83;66.75
67354;SHT30;54238;52.278;21.056;2024-03-22T17:29:59;11.84;66.79
67354;SHT30;54238;52.278;21.056;2024-03-22T17:32:45;11.85;66.80